createdAt,value
2023-11-07T00:01:33.704Z,99.58
2023-11-07T00:04:10.089Z,99.85
2023-11-07T00:06:39.473Z,98.79
2023-11-07T00:09:08.937Z,98.28
2023-11-07T00:11:37.607Z,97.76
2023-11-07T00:14:06.559Z,97.00
2023-11-07T00:16:35.751Z,97.14
2023-11-07T00:19:06.664Z,95.97
2023-11-07T00:21:35.125Z,95.55
2023-11-07T00:24:03.657Z,94.87
2023-11-07T00:26:32.363Z,95.02
2023-11-07T00:29:00.938Z,94.20
2023-11-07T00:31:29.518Z,94.11
2023-11-07T00:33:58.045Z,92.93
2023-11-07T00:36:26.379Z,93.81
2023-11-07T00:38:54.618Z,93.55
2023-11-07T00:41:23.043Z,93.15
2023-11-07T00:43:51.413Z,93.57
2023-11-07T00:46:20.203Z,95.31
2023-11-07T00:48:48.705Z,98.35
2023-11-07T00:51:17.339Z,98.76
2023-11-07T00:53:45.612Z,98.42
2023-11-07T00:56:13.980Z,97.55
2023-11-07T00:58:42.307Z,97.08
2023-11-07T01:01:10.778Z,97.66
2023-11-07T01:03:39.348Z,97.86
2023-11-07T01:06:08.015Z,97.28
2023-11-07T01:08:36.404Z,96.77
2023-11-07T01:11:04.872Z,96.55
2023-11-07T01:13:33.408Z,95.85
2023-11-07T01:16:01.797Z,95.73
2023-11-07T01:18:30.244Z,94.94
2023-11-07T01:20:58.961Z,94.32
2023-11-07T01:23:27.236Z,94.23
2023-11-07T01:25:55.716Z,94.80
2023-11-07T01:28:24.376Z,94.88
2023-11-07T01:30:52.691Z,94.56
2023-11-07T01:33:21.399Z,93.59
2023-11-07T01:35:50.230Z,94.11
2023-11-07T01:38:18.582Z,94.29
2023-11-07T01:40:46.919Z,94.37
2023-11-07T01:43:16.159Z,94.41
2023-11-07T01:45:44.797Z,93.87
2023-11-07T01:48:14.193Z,94.22
2023-11-07T01:50:43.450Z,94.02
2023-11-07T01:53:11.779Z,94.25
2023-11-07T01:55:42.114Z,93.58
2023-11-07T01:58:11.101Z,93.28
2023-11-07T02:00:41.490Z,93.26
2023-11-07T02:03:09.979Z,94.13
2023-11-07T02:05:38.861Z,93.41
2023-11-07T02:08:07.328Z,92.63
2023-11-07T02:10:35.559Z,93.13
2023-11-07T02:13:04.243Z,93.00
2023-11-07T02:15:33.143Z,93.09
2023-11-07T02:18:02.132Z,92.91
2023-11-07T02:20:32.210Z,93.02
2023-11-07T02:23:04.170Z,93.32
2023-11-07T02:25:32.632Z,93.29
2023-11-07T02:28:02.605Z,92.82
2023-11-07T02:30:30.843Z,92.00
2023-11-07T02:33:05.509Z,90.98
2023-11-07T02:35:34.157Z,91.69
2023-11-07T02:38:02.475Z,92.32
2023-11-07T02:40:31.165Z,92.57
2023-11-07T02:43:01.385Z,92.57
2023-11-07T02:45:30.179Z,92.08
2023-11-07T02:47:59.220Z,92.10
2023-11-07T02:50:27.592Z,92.64
2023-11-07T02:52:55.928Z,92.77
2023-11-07T02:55:24.308Z,93.08
2023-11-07T02:57:52.691Z,93.01
2023-11-07T03:00:21.380Z,92.83
2023-11-07T03:02:50.234Z,92.49
2023-11-07T03:05:19.282Z,92.67
2023-11-07T03:07:47.639Z,92.65
2023-11-07T03:10:16.275Z,92.78
2023-11-07T03:12:44.809Z,92.66
2023-11-07T03:15:14.423Z,92.22
2023-11-07T03:17:43.198Z,92.65
2023-11-07T03:20:12.141Z,92.26
2023-11-07T03:22:40.379Z,92.55
2023-11-07T03:25:08.960Z,93.04
2023-11-07T03:27:38.497Z,93.67
2023-11-07T03:30:07.453Z,94.13
2023-11-07T03:32:36.226Z,95.05
2023-11-07T03:35:06.002Z,94.76
2023-11-07T03:37:34.245Z,94.41
2023-11-07T03:40:04.557Z,94.14
2023-11-07T03:42:33.465Z,93.89
2023-11-07T03:45:01.970Z,93.99
2023-11-07T03:47:31.379Z,94.00
2023-11-07T03:49:59.676Z,93.90
2023-11-07T03:52:27.940Z,94.34
2023-11-07T03:54:56.376Z,94.14
2023-11-07T03:57:25.229Z,94.24
2023-11-07T03:59:53.468Z,94.09
2023-11-07T04:02:23.100Z,93.80
2023-11-07T04:04:51.334Z,93.83
2023-11-07T04:07:19.805Z,93.75
2023-11-07T04:09:48.256Z,94.56
2023-11-07T04:12:17.182Z,96.29
2023-11-07T04:14:46.838Z,96.63
2023-11-07T04:17:17.000Z,96.90
2023-11-07T04:19:45.396Z,96.73
2023-11-07T04:22:14.340Z,96.74
2023-11-07T04:24:43.601Z,97.65
2023-11-07T04:27:11.989Z,97.16
2023-11-07T04:29:40.406Z,97.64
2023-11-07T04:32:08.633Z,96.27
2023-11-07T04:34:37.520Z,96.00
2023-11-07T04:37:05.789Z,96.58
2023-11-07T04:39:34.169Z,96.92
2023-11-07T04:42:03.092Z,96.53
2023-11-07T04:44:33.184Z,96.33
2023-11-07T04:47:03.960Z,96.40
2023-11-07T04:49:35.684Z,96.19
2023-11-07T04:52:04.720Z,95.73
2023-11-07T04:54:32.875Z,95.31
2023-11-07T04:57:01.609Z,95.74
2023-11-07T04:59:30.631Z,95.75
2023-11-07T05:01:58.879Z,96.52
2023-11-07T05:04:27.687Z,96.09
2023-11-07T05:06:56.215Z,95.97
2023-11-07T05:09:26.818Z,95.59
2023-11-07T05:11:56.484Z,95.77
2023-11-07T05:14:24.853Z,95.82
2023-11-07T05:16:53.226Z,95.42
2023-11-07T05:19:21.592Z,95.60
2023-11-07T05:21:49.796Z,94.81
2023-11-07T05:24:18.372Z,94.81
2023-11-07T05:26:46.891Z,94.63
2023-11-07T05:29:16.222Z,94.75
2023-11-07T05:31:44.673Z,94.20
2023-11-07T05:34:13.541Z,94.04
2023-11-07T05:36:42.524Z,94.01
2023-11-07T05:39:10.764Z,93.62
2023-11-07T05:41:39.014Z,93.68
2023-11-07T05:44:08.293Z,94.00
2023-11-07T05:46:36.573Z,93.95
2023-11-07T05:49:05.098Z,93.80
2023-11-07T05:51:33.578Z,95.01
2023-11-07T05:54:02.083Z,95.74
2023-11-07T05:56:30.332Z,95.61
2023-11-07T05:58:58.466Z,95.68
2023-11-07T06:01:26.725Z,95.57
2023-11-07T06:03:55.872Z,95.76
2023-11-07T06:06:25.865Z,95.93
2023-11-07T06:08:55.098Z,95.69
2023-11-07T06:11:23.783Z,95.54
2023-11-07T06:13:51.989Z,95.56
2023-11-07T06:16:20.277Z,95.43
2023-11-07T06:18:49.745Z,95.18
2023-11-07T06:21:17.921Z,94.86
2023-11-07T06:23:46.254Z,94.74
2023-11-07T06:26:14.524Z,94.29
2023-11-07T06:28:42.797Z,93.96
2023-11-07T06:31:10.900Z,93.34
2023-11-07T06:33:39.402Z,93.04
2023-11-07T06:36:08.211Z,92.20
2023-11-07T06:38:36.578Z,91.51
2023-11-07T06:41:05.348Z,91.28
2023-11-07T06:43:33.630Z,90.53
2023-11-07T06:46:01.903Z,89.81
2023-11-07T06:48:30.600Z,89.52
2023-11-07T06:50:59.929Z,87.27
2023-11-07T06:53:28.395Z,85.94
2023-11-07T06:55:56.863Z,85.61
2023-11-07T06:58:25.391Z,84.73
2023-11-07T07:00:55.971Z,84.70
2023-11-07T07:03:28.308Z,82.41
2023-11-07T07:05:56.930Z,82.48
2023-11-07T07:08:25.320Z,83.21
2023-11-07T07:10:53.484Z,80.57
2023-11-07T07:13:23.447Z,81.04
2023-11-07T07:15:52.088Z,80.69
2023-11-07T07:18:23.840Z,74.49
2023-11-07T07:20:54.928Z,78.82
2023-11-07T07:23:26.318Z,77.60
2023-11-07T07:25:54.637Z,76.12
2023-11-07T07:28:22.696Z,71.76
2023-11-07T07:30:50.814Z,67.13
2023-11-07T07:33:20.771Z,71.28
2023-11-07T07:35:49.298Z,71.58
2023-11-07T07:38:17.679Z,65.56
2023-11-07T07:40:45.812Z,59.69
2023-11-07T07:43:13.928Z,61.83
2023-11-07T07:45:45.658Z,64.59
2023-11-07T07:48:14.332Z,63.69
2023-11-07T07:50:48.358Z,60.85
2023-11-07T07:53:16.857Z,63.08
2023-11-07T07:55:45.961Z,69.39
2023-11-07T07:58:20.684Z,60.48
2023-11-07T08:00:51.136Z,57.75
2023-11-07T08:03:20.174Z,58.88
2023-11-07T08:05:53.174Z,54.37
2023-11-07T08:08:22.124Z,55.44
2023-11-07T08:10:50.574Z,62.08
2023-11-07T08:13:20.180Z,60.63
2023-11-07T08:15:51.852Z,58.68
2023-11-07T08:18:20.761Z,59.67
2023-11-07T08:20:49.284Z,60.97
2023-11-07T08:23:17.782Z,59.47
2023-11-07T08:25:46.167Z,60.26
2023-11-07T08:28:14.639Z,62.09
2023-11-07T08:30:45.722Z,59.78
2023-11-07T08:33:15.023Z,59.34
2023-11-07T08:35:45.018Z,58.88
2023-11-07T08:38:13.380Z,58.48
2023-11-07T08:40:41.722Z,59.49
2023-11-07T08:43:10.662Z,58.77
2023-11-07T08:45:39.054Z,58.80
2023-11-07T08:48:08.384Z,58.33
2023-11-07T08:50:38.633Z,58.57
2023-11-07T08:53:07.296Z,59.63
2023-11-07T08:55:35.834Z,59.00
2023-11-07T08:58:04.810Z,58.93
2023-11-07T09:00:35.797Z,58.34
2023-11-07T09:03:04.888Z,56.55
2023-11-07T09:05:33.916Z,57.21
2023-11-07T09:08:06.064Z,58.45
2023-11-07T09:10:35.117Z,57.35
2023-11-07T09:13:05.117Z,57.77
2023-11-07T09:15:33.480Z,53.88
2023-11-07T09:18:02.505Z,52.52
2023-11-07T09:20:31.315Z,50.98
2023-11-07T09:22:59.750Z,52.55
2023-11-07T09:25:28.082Z,52.60
2023-11-07T09:27:56.660Z,50.98
2023-11-07T09:30:25.073Z,52.02
2023-11-07T09:32:53.830Z,51.92
2023-11-07T09:35:22.491Z,49.45
2023-11-07T09:37:51.573Z,48.60
2023-11-07T09:40:24.336Z,50.03
2023-11-07T09:42:55.438Z,49.99
2023-11-07T09:45:23.689Z,49.60
2023-11-07T09:47:52.383Z,49.30
2023-11-07T09:50:21.761Z,50.04
2023-11-07T09:52:51.157Z,50.82
2023-11-07T09:55:19.391Z,47.53
2023-11-07T09:58:15.562Z,49.37
2023-11-07T10:00:46.697Z,46.96
2023-11-07T10:03:15.929Z,46.27
2023-11-07T10:05:47.533Z,46.80
2023-11-07T10:08:17.664Z,47.66
2023-11-07T10:11:05.865Z,45.85
2023-11-07T10:13:34.162Z,46.80
2023-11-07T10:16:18.137Z,47.05
2023-11-07T10:18:49.860Z,43.98
2023-11-07T10:21:31.022Z,45.29
2023-11-07T10:23:59.994Z,43.57
2023-11-07T10:26:28.747Z,42.79
2023-11-07T10:29:19.021Z,42.37
2023-11-07T10:31:59.159Z,42.53
2023-11-07T10:34:27.659Z,42.00
2023-11-07T10:36:56.905Z,41.90
2023-11-07T10:39:27.503Z,42.52
2023-11-07T10:41:59.844Z,41.33
2023-11-07T10:44:31.054Z,39.79
2023-11-07T10:46:59.908Z,39.61
2023-11-07T10:49:29.853Z,39.80
2023-11-07T10:52:02.004Z,39.54
2023-11-07T10:54:32.216Z,40.09
2023-11-07T10:57:06.694Z,38.66
2023-11-07T10:59:36.643Z,38.37
2023-11-07T11:02:09.456Z,37.42
2023-11-07T11:04:39.465Z,36.71
2023-11-07T11:07:09.106Z,35.80
2023-11-07T11:09:40.283Z,35.48
2023-11-07T11:12:08.950Z,33.94
2023-11-07T11:14:37.182Z,32.36
2023-11-07T11:17:09.154Z,32.66
2023-11-07T11:20:06.978Z,31.89
2023-11-07T11:22:56.608Z,30.66
2023-11-07T11:25:36.559Z,30.61
2023-11-07T11:28:06.886Z,29.89
2023-11-07T11:30:39.181Z,28.62
2023-11-07T11:33:13.200Z,28.96
2023-11-07T11:35:42.857Z,29.07
2023-11-07T11:38:17.950Z,29.69
2023-11-07T11:40:47.429Z,29.45
2023-11-07T11:43:15.563Z,29.67
2023-11-07T11:45:47.313Z,29.08
2023-11-07T11:48:16.872Z,27.51
2023-11-07T11:50:46.890Z,27.01
2023-11-07T11:53:41.274Z,27.26
2023-11-07T11:56:12.286Z,25.52
2023-11-07T11:58:40.805Z,24.81
2023-11-07T12:01:09.462Z,24.07
2023-11-07T12:03:41.524Z,26.15
2023-11-07T12:06:10.354Z,25.01
2023-11-07T12:08:40.566Z,24.47
2023-11-07T12:11:09.358Z,22.69
2023-11-07T12:13:37.956Z,21.67
2023-11-07T12:16:17.329Z,22.12
2023-11-07T12:18:49.462Z,21.86
2023-11-07T12:21:22.045Z,22.61
2023-11-07T12:23:51.958Z,22.80
2023-11-07T12:26:22.068Z,21.94
2023-11-07T12:28:52.938Z,21.98
2023-11-07T12:31:25.709Z,22.04
2023-11-07T12:33:55.199Z,21.88
2023-11-07T12:36:23.583Z,21.66
2023-11-07T12:38:52.136Z,21.86
2023-11-07T12:41:20.995Z,22.50
2023-11-07T12:43:49.848Z,22.16
2023-11-07T12:46:18.780Z,23.01
2023-11-07T12:48:48.791Z,23.94
2023-11-07T12:51:23.436Z,25.06
2023-11-07T12:53:52.831Z,24.89
2023-11-07T12:56:22.349Z,24.73
2023-11-07T12:58:50.878Z,24.40
2023-11-07T13:01:25.046Z,24.70
2023-11-07T13:03:55.254Z,24.60
2023-11-07T13:06:23.953Z,24.57
2023-11-07T13:08:52.419Z,23.32
2023-11-07T13:11:22.130Z,22.54
2023-11-07T13:13:51.380Z,22.36
2023-11-07T13:16:20.875Z,22.24
2023-11-07T13:18:50.543Z,22.34
2023-11-07T13:21:19.361Z,21.92
2023-11-07T13:23:48.773Z,21.52
2023-11-07T13:26:17.514Z,22.18
2023-11-07T13:28:45.804Z,21.36
2023-11-07T13:31:15.196Z,21.37
2023-11-07T13:33:47.515Z,21.03
2023-11-07T13:36:17.050Z,20.70
2023-11-07T13:38:49.590Z,21.12
2023-11-07T13:41:18.208Z,21.23
2023-11-07T13:43:46.947Z,21.33
2023-11-07T13:46:19.847Z,21.92
2023-11-07T13:48:53.196Z,21.84
2023-11-07T13:51:22.546Z,21.81
2023-11-07T13:53:52.497Z,22.05
2023-11-07T13:56:22.258Z,21.66
2023-11-07T13:58:50.715Z,21.76
2023-11-07T14:01:19.092Z,22.20
2023-11-07T14:03:47.956Z,22.28
2023-11-07T14:06:19.428Z,22.48
2023-11-07T14:08:48.329Z,22.98
2023-11-07T14:11:18.070Z,23.93
2023-11-07T14:13:49.008Z,24.68
2023-11-07T14:16:18.396Z,25.61
2023-11-07T14:18:50.539Z,26.66
2023-11-07T14:21:19.763Z,27.27
2023-11-07T14:23:48.377Z,27.95
2023-11-07T14:26:17.904Z,28.66
2023-11-07T14:28:58.572Z,29.49
2023-11-07T14:31:31.159Z,30.22
2023-11-07T14:34:00.516Z,30.87
2023-11-07T14:36:29.749Z,31.89
2023-11-07T14:38:58.202Z,32.72
2023-11-07T14:41:28.566Z,33.53
2023-11-07T14:43:57.753Z,35.08
2023-11-07T14:46:26.032Z,36.11
2023-11-07T14:48:57.497Z,36.72
2023-11-07T14:51:26.731Z,37.84
2023-11-07T14:53:55.375Z,39.03
2023-11-07T14:56:25.621Z,40.03
2023-11-07T14:58:54.716Z,40.78
2023-11-07T15:01:23.977Z,41.56
2023-11-07T15:03:52.643Z,41.72
2023-11-07T15:06:21.168Z,42.10
2023-11-07T15:08:49.513Z,42.60
2023-11-07T15:11:18.235Z,43.40
2023-11-07T15:13:46.765Z,43.82
2023-11-07T15:16:15.769Z,44.75
2023-11-07T15:18:44.129Z,44.71
2023-11-07T15:21:12.973Z,45.30
2023-11-07T15:23:42.063Z,45.71
2023-11-07T15:26:10.413Z,45.92
2023-11-07T15:28:38.683Z,46.84
2023-11-07T15:31:07.125Z,47.19
2023-11-07T15:33:35.995Z,47.58
2023-11-07T15:36:04.724Z,47.86
2023-11-07T15:38:33.543Z,48.18
2023-11-07T15:41:02.286Z,48.17
2023-11-07T15:43:30.607Z,48.81
2023-11-07T15:46:00.926Z,48.69
2023-11-07T15:48:29.519Z,49.10
2023-11-07T15:50:57.921Z,49.23
2023-11-07T15:53:26.127Z,50.09
2023-11-07T15:55:54.555Z,50.21
2023-11-07T15:58:22.964Z,50.56
2023-11-07T16:00:51.724Z,51.24
2023-11-07T16:03:20.351Z,51.85
2023-11-07T16:05:48.871Z,52.31
2023-11-07T16:08:17.530Z,53.03
2023-11-07T16:10:46.497Z,53.35
2023-11-07T16:13:15.742Z,53.74
2023-11-07T16:15:44.265Z,54.08
2023-11-07T16:18:12.824Z,54.37
2023-11-07T16:20:44.119Z,54.92
2023-11-07T16:23:12.688Z,56.10
2023-11-07T16:25:41.211Z,56.85
2023-11-07T16:28:10.150Z,56.15
2023-11-07T16:30:40.604Z,56.86
2023-11-07T16:33:11.211Z,57.05
2023-11-07T16:35:39.641Z,57.27
2023-11-07T16:38:07.970Z,58.00
2023-11-07T16:40:36.250Z,57.43
2023-11-07T16:43:06.576Z,57.18
2023-11-07T16:45:34.943Z,56.96
2023-11-07T16:48:05.501Z,57.18
2023-11-07T16:50:34.329Z,56.94
2023-11-07T16:53:02.767Z,56.82
2023-11-07T16:55:32.099Z,56.64
2023-11-07T16:58:01.693Z,57.45
2023-11-07T17:00:31.713Z,57.20
2023-11-07T17:03:00.238Z,57.81
2023-11-07T17:05:29.014Z,57.44
2023-11-07T17:07:57.541Z,58.10
2023-11-07T17:10:26.329Z,58.95
2023-11-07T17:12:54.606Z,58.87
2023-11-07T17:15:23.125Z,58.95
2023-11-07T17:17:52.476Z,59.55
2023-11-07T17:20:21.498Z,58.87
2023-11-07T17:22:49.971Z,54.64
2023-11-07T17:25:19.477Z,53.58
2023-11-07T17:27:51.350Z,56.25
2023-11-07T17:30:21.658Z,58.19
2023-11-07T17:32:50.340Z,59.18
2023-11-07T17:35:18.939Z,59.04
2023-11-07T17:37:48.815Z,56.32
2023-11-07T17:40:17.409Z,58.61
2023-11-07T17:42:45.710Z,59.48
2023-11-07T17:45:14.891Z,60.04
2023-11-07T17:47:43.438Z,60.59
2023-11-07T17:50:11.991Z,60.62
2023-11-07T17:52:41.597Z,59.55
2023-11-07T17:55:15.374Z,61.15
2023-11-07T17:57:45.758Z,61.77
2023-11-07T18:00:16.512Z,62.44
2023-11-07T18:02:45.202Z,62.39
2023-11-07T18:05:14.697Z,62.94
2023-11-07T18:07:43.293Z,63.86
2023-11-07T18:10:11.775Z,64.67
2023-11-07T18:12:40.484Z,66.56
2023-11-07T18:15:09.713Z,67.56
2023-11-07T18:17:38.354Z,67.63
2023-11-07T18:20:08.523Z,66.69
2023-11-07T18:22:37.818Z,66.93
2023-11-07T18:25:07.530Z,67.10
2023-11-07T18:27:37.799Z,67.60
2023-11-07T18:30:12.593Z,67.35
2023-11-07T18:32:43.390Z,67.78
2023-11-07T18:35:12.173Z,67.57
2023-11-07T18:37:40.607Z,67.14
2023-11-07T18:40:09.673Z,68.18
2023-11-07T18:42:38.089Z,66.97
2023-11-07T18:45:09.797Z,67.30
2023-11-07T18:47:38.420Z,67.07
2023-11-07T18:50:08.943Z,67.25
2023-11-07T18:52:39.993Z,69.40
2023-11-07T18:55:08.924Z,72.83
2023-11-07T18:57:37.505Z,72.12
2023-11-07T19:00:09.831Z,71.79
2023-11-07T19:02:38.190Z,71.67
2023-11-07T19:05:09.222Z,72.17
2023-11-07T19:07:40.157Z,72.52
2023-11-07T19:10:08.952Z,72.23
2023-11-07T19:12:38.231Z,73.06
2023-11-07T19:15:07.875Z,72.59
2023-11-07T19:17:36.791Z,73.40
2023-11-07T19:20:05.822Z,74.45
2023-11-07T19:22:34.574Z,75.41
2023-11-07T19:25:04.178Z,74.55
2023-11-07T19:27:33.125Z,72.98
2023-11-07T19:30:01.609Z,70.96
2023-11-07T19:32:30.053Z,70.59
2023-11-07T19:34:59.061Z,72.98
2023-11-07T19:37:29.664Z,72.98
2023-11-07T19:39:58.562Z,70.35
2023-11-07T19:42:28.255Z,67.21
2023-11-07T19:44:56.852Z,68.43
2023-11-07T19:47:25.257Z,66.40
2023-11-07T19:49:53.507Z,66.32
2023-11-07T19:52:22.297Z,68.29
2023-11-07T19:54:51.912Z,70.93
2023-11-07T19:57:23.091Z,72.10
2023-11-07T19:59:51.447Z,72.34
2023-11-07T20:02:23.058Z,74.15
2023-11-07T20:04:54.520Z,75.16
2023-11-07T20:07:23.127Z,73.13
2023-11-07T20:09:51.419Z,67.27
2023-11-07T20:12:19.742Z,65.10
2023-11-07T20:14:48.169Z,64.34
2023-11-07T20:17:16.474Z,65.71
2023-11-07T20:19:45.033Z,68.11
2023-11-07T20:22:13.635Z,69.43
2023-11-07T20:24:42.749Z,67.99
2023-11-07T20:27:11.154Z,69.17
2023-11-07T20:29:41.110Z,69.64
2023-11-07T20:32:09.687Z,72.94
2023-11-07T20:34:39.191Z,74.31
2023-11-07T20:37:08.082Z,74.71
2023-11-07T20:39:36.519Z,77.21
2023-11-07T20:42:05.269Z,77.87
2023-11-07T20:44:42.673Z,77.66
2023-11-07T20:47:12.978Z,75.35
2023-11-07T20:49:45.622Z,74.64
2023-11-07T20:52:24.924Z,75.81
2023-11-07T20:54:57.034Z,75.56
2023-11-07T20:57:25.935Z,76.67
2023-11-07T20:59:54.433Z,76.59
2023-11-07T21:02:22.658Z,77.19
2023-11-07T21:04:51.200Z,78.18
2023-11-07T21:07:19.668Z,77.73
2023-11-07T21:09:48.049Z,77.09
2023-11-07T21:12:16.460Z,77.03
2023-11-07T21:14:45.023Z,75.44
2023-11-07T21:17:13.914Z,74.14
2023-11-07T21:19:42.286Z,75.07
2023-11-07T21:22:12.153Z,75.04
2023-11-07T21:24:41.216Z,76.55
2023-11-07T21:27:09.695Z,76.69
2023-11-07T21:29:38.205Z,76.65
2023-11-07T21:32:06.884Z,77.53
2023-11-07T21:34:35.793Z,75.91
2023-11-07T21:37:05.314Z,71.77
2023-11-07T21:39:33.628Z,69.81
2023-11-07T21:42:02.338Z,70.65
2023-11-07T21:44:30.693Z,72.78
2023-11-07T21:47:00.300Z,73.44
2023-11-07T21:49:28.632Z,71.09
2023-11-07T21:51:57.181Z,69.28
2023-11-07T21:54:25.379Z,69.75
2023-11-07T21:56:55.613Z,71.92
2023-11-07T21:59:24.048Z,73.13
2023-11-07T22:01:52.272Z,73.28
2023-11-07T22:04:20.521Z,74.14
2023-11-07T22:06:48.835Z,75.97
2023-11-07T22:09:18.231Z,76.85
2023-11-07T22:11:47.068Z,78.32
2023-11-07T22:14:16.119Z,76.35
2023-11-07T22:16:44.850Z,78.52
2023-11-07T22:19:13.442Z,80.28
2023-11-07T22:21:42.228Z,79.82
2023-11-07T22:24:10.952Z,80.24
2023-11-07T22:26:39.703Z,80.74
2023-11-07T22:29:08.226Z,81.28
2023-11-07T22:31:37.089Z,77.58
2023-11-07T22:34:05.554Z,79.40
2023-11-07T22:36:34.932Z,80.15
2023-11-07T22:39:04.513Z,80.92
2023-11-07T22:41:32.852Z,82.30
2023-11-07T22:44:01.430Z,92.34
2023-11-07T22:46:30.624Z,95.53
2023-11-07T22:48:59.458Z,96.33
2023-11-07T22:51:28.024Z,97.67
2023-11-07T22:53:56.503Z,94.15
2023-11-07T22:56:24.868Z,91.66
2023-11-07T22:58:53.196Z,90.67
2023-11-07T23:01:21.621Z,89.58
2023-11-07T23:03:50.189Z,91.05
2023-11-07T23:06:18.757Z,90.04
2023-11-07T23:08:47.175Z,89.58
2023-11-07T23:11:15.979Z,89.44
2023-11-07T23:13:44.442Z,88.84
2023-11-07T23:16:12.829Z,88.05
2023-11-07T23:18:44.017Z,87.32
2023-11-07T23:21:13.208Z,87.15
2023-11-07T23:23:41.375Z,86.79
2023-11-07T23:26:11.274Z,85.58
2023-11-07T23:28:39.480Z,84.00
2023-11-07T23:31:08.475Z,85.22
2023-11-07T23:33:36.837Z,86.47
2023-11-07T23:36:06.227Z,86.89
2023-11-07T23:38:35.631Z,88.98
2023-11-07T23:41:05.255Z,89.34
2023-11-07T23:43:33.601Z,88.79
2023-11-07T23:46:01.878Z,87.96
2023-11-07T23:48:30.788Z,87.43
2023-11-07T23:50:59.154Z,87.63
2023-11-07T23:53:27.527Z,87.00
2023-11-07T23:55:55.789Z,85.75
2023-11-07T23:58:24.190Z,85.58
